createdAt,value
2023-03-26T00:00:28.443Z,29.42
2023-03-26T00:04:28.469Z,28.94
2023-03-26T00:08:28.597Z,27.02
2023-03-26T00:12:28.649Z,28.63
2023-03-26T00:16:28.792Z,28.35
2023-03-26T00:20:28.773Z,29.83
2023-03-26T00:24:28.774Z,27.37
2023-03-26T00:28:28.801Z,25.71
2023-03-26T00:32:28.827Z,27.90
2023-03-26T00:36:28.850Z,28.34
2023-03-26T00:40:28.824Z,29.67
2023-03-26T00:44:28.929Z,25.78
2023-03-26T00:48:41.882Z,27.09
2023-03-26T00:52:29.889Z,26.11
2023-03-26T00:56:28.848Z,29.89
2023-03-26T01:00:28.792Z,26.71
2023-03-26T01:04:28.842Z,26.56
2023-03-26T01:08:28.757Z,32.40
2023-03-26T01:12:28.681Z,29.18
2023-03-26T01:16:28.643Z,29.11
2023-03-26T01:20:28.661Z,29.84
2023-03-26T01:24:28.567Z,30.00
2023-03-26T01:28:28.539Z,30.27
2023-03-26T01:32:28.586Z,27.97
2023-03-26T01:36:28.504Z,31.01
2023-03-26T01:40:28.470Z,30.75
2023-03-26T01:44:28.380Z,31.63
2023-03-26T01:48:28.373Z,30.48
2023-03-26T01:52:28.336Z,29.43
2023-03-26T01:56:28.280Z,29.50
2023-03-26T02:00:28.254Z,31.35
2023-03-26T02:04:28.205Z,28.13
2023-03-26T02:08:28.241Z,28.58
2023-03-26T02:12:28.249Z,28.35
2023-03-26T02:16:28.212Z,33.63
2023-03-26T02:20:28.246Z,33.46
2023-03-26T02:24:28.221Z,30.29
2023-03-26T02:28:28.208Z,30.64
2023-03-26T02:32:29.352Z,28.20
2023-03-26T02:36:28.598Z,31.04
2023-03-26T02:40:28.198Z,29.82
2023-03-26T02:44:28.234Z,33.10
2023-03-26T02:48:28.199Z,31.82
2023-03-26T02:52:28.210Z,30.65
2023-03-26T02:56:28.254Z,32.73
2023-03-26T03:00:28.191Z,31.47
2023-03-26T03:04:28.218Z,28.83
2023-03-26T03:08:28.330Z,31.15
2023-03-26T03:12:28.249Z,25.90
2023-03-26T03:16:28.288Z,27.50
2023-03-26T03:20:28.289Z,31.33
2023-03-26T03:24:28.263Z,27.51
2023-03-26T03:28:28.297Z,28.98
2023-03-26T03:32:28.347Z,28.24
2023-03-26T03:36:28.376Z,25.18
2023-03-26T03:40:28.392Z,26.68
2023-03-26T03:44:28.391Z,29.89
2023-03-26T03:48:28.431Z,25.56
2023-03-26T03:52:28.474Z,31.69
2023-03-26T03:56:28.510Z,26.44
2023-03-26T04:00:28.560Z,28.50
2023-03-26T04:04:28.629Z,29.39
2023-03-26T04:08:28.669Z,29.53
2023-03-26T04:12:28.716Z,28.56
2023-03-26T04:16:28.798Z,30.02
2023-03-26T04:20:28.800Z,27.86
2023-03-26T04:24:28.846Z,27.43
2023-03-26T04:28:28.933Z,27.87
2023-03-26T04:32:28.994Z,30.61
2023-03-26T04:36:29.061Z,30.07
2023-03-26T04:40:29.058Z,29.38
2023-03-26T04:44:29.078Z,29.63
2023-03-26T04:48:29.154Z,29.63
2023-03-26T04:52:29.174Z,27.84
2023-03-26T04:56:29.267Z,28.06
2023-03-26T05:00:29.324Z,29.79
2023-03-26T05:04:29.442Z,30.56
2023-03-26T05:08:29.471Z,27.00
2023-03-26T05:12:29.578Z,31.92
2023-03-26T05:16:29.713Z,28.89
2023-03-26T05:20:29.720Z,31.11
2023-03-26T05:24:29.839Z,27.46
2023-03-26T05:28:29.937Z,31.67
2023-03-26T05:32:30.077Z,33.48
2023-03-26T05:36:30.083Z,30.81
2023-03-26T05:40:30.157Z,30.94
2023-03-26T05:44:30.256Z,33.89
2023-03-26T05:48:30.292Z,30.76
2023-03-26T05:52:30.490Z,27.01
2023-03-26T05:56:30.490Z,28.50
2023-03-26T06:00:30.595Z,26.17
2023-03-26T06:04:30.822Z,30.41
2023-03-26T06:08:30.739Z,27.64
2023-03-26T06:12:30.829Z,25.00
2023-03-26T06:16:30.978Z,30.16
2023-03-26T06:20:30.950Z,29.89
2023-03-26T06:24:31.039Z,28.78
2023-03-26T06:28:31.101Z,32.99
2023-03-26T06:32:31.153Z,30.78
2023-03-26T06:36:31.226Z,32.07
2023-03-26T06:40:31.289Z,30.09
2023-03-26T06:44:31.373Z,29.65
2023-03-26T06:48:31.397Z,29.38
2023-03-26T06:52:31.488Z,29.87
2023-03-26T06:56:31.580Z,32.11
2023-03-26T07:00:31.620Z,29.64
2023-03-26T07:04:31.647Z,27.84
2023-03-26T07:08:31.700Z,31.39
2023-03-26T07:12:31.704Z,29.21
2023-03-26T07:16:31.817Z,28.09
2023-03-26T07:20:31.866Z,28.64
2023-03-26T07:24:31.882Z,33.76
2023-03-26T07:28:31.867Z,31.59
2023-03-26T07:32:31.879Z,30.16
2023-03-26T07:36:31.844Z,30.98
2023-03-26T07:40:31.855Z,30.42
2023-03-26T07:44:33.536Z,29.25
2023-03-26T07:48:31.796Z,29.85
2023-03-26T07:52:31.772Z,29.98
2023-03-26T07:56:31.773Z,28.75
2023-03-26T08:00:31.696Z,29.32
2023-03-26T08:04:31.720Z,30.05
2023-03-26T08:08:31.643Z,29.51
2023-03-26T08:12:31.594Z,30.06
2023-03-26T08:16:31.572Z,28.46
2023-03-26T08:20:31.506Z,31.49
2023-03-26T08:24:31.482Z,29.08
2023-03-26T08:28:31.428Z,30.63
2023-03-26T08:32:31.413Z,29.41
2023-03-26T08:36:31.339Z,26.82
2023-03-26T08:40:31.334Z,26.29
2023-03-26T08:44:31.274Z,31.18
2023-03-26T08:48:31.261Z,30.76
2023-03-26T08:52:31.235Z,28.93
2023-03-26T08:56:31.208Z,27.02
2023-03-26T09:00:31.164Z,28.46
2023-03-26T09:04:31.139Z,28.51
2023-03-26T09:08:31.080Z,29.72
2023-03-26T09:12:31.027Z,28.79
2023-03-26T09:16:31.036Z,27.90
2023-03-26T09:20:30.995Z,27.10
2023-03-26T09:24:30.942Z,28.58
2023-03-26T09:28:30.897Z,26.80
2023-03-26T09:32:30.894Z,27.56
2023-03-26T09:36:30.809Z,28.25
2023-03-26T09:40:30.788Z,29.26
2023-03-26T09:44:30.755Z,28.19
2023-03-26T09:48:30.794Z,25.00
2023-03-26T09:52:30.887Z,30.91
2023-03-26T09:56:31.046Z,29.59
2023-03-26T10:00:31.074Z,32.88
2023-03-26T10:04:31.206Z,29.70
2023-03-26T10:08:32.548Z,32.30
2023-03-26T10:12:31.326Z,27.49
2023-03-26T10:16:31.491Z,32.96
2023-03-26T10:20:31.494Z,34.00
2023-03-26T10:24:31.594Z,32.65
2023-03-26T10:28:31.725Z,31.58
2023-03-26T10:32:31.871Z,31.18
2023-03-26T10:36:31.793Z,34.82
2023-03-26T10:40:31.891Z,33.84
2023-03-26T10:44:31.966Z,31.98
2023-03-26T10:48:32.068Z,30.13
2023-03-26T10:52:32.148Z,31.09
2023-03-26T10:56:32.333Z,30.36
2023-03-26T11:00:32.328Z,31.52
2023-03-26T11:04:32.402Z,32.99
2023-03-26T11:08:32.757Z,32.13
2023-03-26T11:12:32.577Z,33.03
2023-03-26T11:16:32.709Z,33.27
2023-03-26T11:20:32.783Z,30.19
2023-03-26T11:24:32.853Z,30.21
2023-03-26T11:28:32.920Z,32.11
2023-03-26T11:32:32.997Z,28.61
2023-03-26T11:36:33.103Z,32.14
2023-03-26T11:40:33.266Z,32.78
2023-03-26T11:44:33.591Z,31.00
2023-03-26T11:48:33.689Z,30.66
2023-03-26T11:52:33.934Z,27.24
2023-03-26T11:56:34.014Z,28.06
2023-03-26T12:00:33.848Z,29.84
2023-03-26T12:04:33.790Z,29.08
2023-03-26T12:08:33.769Z,30.30
2023-03-26T12:12:33.696Z,31.09
2023-03-26T12:16:33.727Z,32.82
2023-03-26T12:20:33.642Z,32.48
2023-03-26T12:24:33.613Z,31.45
2023-03-26T12:28:33.608Z,29.71
2023-03-26T12:32:45.230Z,32.91
2023-03-26T12:36:34.490Z,32.39
2023-03-26T12:40:33.563Z,30.82
2023-03-26T12:44:54.487Z,31.84
2023-03-26T12:48:34.511Z,30.00
2023-03-26T12:52:33.398Z,33.15
2023-03-26T12:56:33.404Z,32.11
2023-03-26T13:00:33.537Z,32.55
2023-03-26T13:04:33.539Z,29.54
2023-03-26T13:08:33.617Z,31.53
2023-03-26T13:12:33.703Z,31.21
2023-03-26T13:16:33.789Z,31.59
2023-03-26T13:20:33.860Z,31.48
2023-03-26T13:24:33.963Z,26.98
2023-03-26T13:28:33.975Z,27.11
2023-03-26T13:32:34.102Z,27.97
2023-03-26T13:36:34.308Z,27.02
2023-03-26T13:40:34.342Z,27.93
2023-03-26T13:44:34.398Z,25.00
2023-03-26T13:48:34.494Z,30.07
2023-03-26T13:52:34.596Z,29.73
2023-03-26T13:56:34.716Z,28.24
2023-03-26T14:00:34.805Z,28.41
2023-03-26T14:04:34.854Z,30.53
2023-03-26T14:08:34.960Z,28.16
2023-03-26T14:12:35.068Z,28.30
2023-03-26T14:16:35.133Z,27.39
2023-03-26T14:20:35.216Z,26.84
2023-03-26T14:24:35.329Z,27.95
2023-03-26T14:28:35.434Z,30.61
2023-03-26T14:32:35.518Z,29.27
2023-03-26T14:36:35.625Z,28.31
2023-03-26T14:40:35.731Z,30.42
2023-03-26T14:44:47.766Z,29.96
2023-03-26T14:48:36.795Z,27.67
2023-03-26T14:52:35.670Z,30.89
2023-03-26T14:56:35.711Z,29.42
2023-03-26T15:00:35.695Z,29.66
2023-03-26T15:04:35.641Z,28.15
2023-03-26T15:08:35.597Z,33.37
2023-03-26T15:12:35.530Z,28.35
2023-03-26T15:16:35.520Z,30.97
2023-03-26T15:20:35.544Z,30.44
2023-03-26T15:24:35.532Z,28.81
2023-03-26T15:28:35.504Z,32.22
2023-03-26T15:32:35.647Z,30.81
2023-03-26T15:36:35.570Z,32.65
2023-03-26T15:40:35.513Z,31.01
2023-03-26T15:44:43.769Z,29.56
2023-03-26T15:48:36.475Z,31.91
2023-03-26T15:52:35.412Z,32.71
2023-03-26T15:56:35.408Z,34.97
2023-03-26T16:00:35.367Z,32.81
2023-03-26T16:04:35.339Z,29.39
2023-03-26T16:08:37.418Z,27.07
2023-03-26T16:12:35.207Z,33.17
2023-03-26T16:16:35.189Z,32.71
2023-03-26T16:20:35.157Z,31.96
2023-03-26T16:24:35.143Z,33.36
2023-03-26T16:28:35.109Z,34.55
2023-03-26T16:32:35.089Z,33.33
2023-03-26T16:36:35.005Z,33.00
2023-03-26T16:40:34.965Z,34.59
2023-03-26T16:44:34.961Z,34.69
2023-03-26T16:48:34.915Z,35.87
2023-03-26T16:52:34.854Z,34.84
2023-03-26T16:56:34.838Z,33.51
2023-03-26T17:00:34.795Z,37.26
2023-03-26T17:04:34.761Z,33.84
2023-03-26T17:08:36.746Z,35.68
2023-03-26T17:12:34.801Z,35.31
2023-03-26T17:16:34.851Z,38.86
2023-03-26T17:20:34.843Z,35.91
2023-03-26T17:24:34.852Z,35.34
2023-03-26T17:28:34.920Z,33.50
2023-03-26T17:32:34.983Z,36.64
2023-03-26T17:36:35.896Z,34.97
2023-03-26T17:40:34.910Z,35.26
2023-03-26T17:44:34.828Z,39.45
2023-03-26T17:48:34.785Z,39.72
2023-03-26T17:52:34.783Z,37.49
2023-03-26T17:56:34.747Z,36.21
2023-03-26T18:00:34.663Z,35.90
2023-03-26T18:04:34.638Z,36.25
2023-03-26T18:08:34.681Z,37.54
2023-03-26T18:12:34.704Z,38.48
2023-03-26T18:16:34.777Z,36.80
2023-03-26T18:20:34.784Z,40.46
2023-03-26T18:24:34.802Z,40.25
2023-03-26T18:28:34.886Z,37.73
2023-03-26T18:32:34.984Z,37.07
2023-03-26T18:36:35.038Z,39.55
2023-03-26T18:40:35.131Z,36.73
2023-03-26T18:44:35.206Z,40.28
2023-03-26T18:48:35.245Z,37.83
2023-03-26T18:52:35.304Z,37.55
2023-03-26T18:56:35.406Z,38.43
2023-03-26T19:00:35.792Z,35.15
2023-03-26T19:04:35.547Z,38.41
2023-03-26T19:08:35.643Z,38.30
2023-03-26T19:12:35.726Z,36.99
2023-03-26T19:16:35.804Z,38.45
2023-03-26T19:20:35.851Z,42.19
2023-03-26T19:24:35.882Z,39.46
2023-03-26T19:28:36.018Z,39.35
2023-03-26T19:32:36.086Z,41.70
2023-03-26T19:36:36.158Z,41.71
2023-03-26T19:40:36.252Z,40.53
2023-03-26T19:44:36.329Z,39.90
2023-03-26T19:48:45.733Z,40.38
2023-03-26T19:52:37.447Z,41.20
2023-03-26T19:56:36.416Z,42.80
2023-03-26T20:00:36.342Z,39.79
2023-03-26T20:04:36.310Z,40.60
2023-03-26T20:08:36.378Z,41.23
2023-03-26T20:12:36.471Z,36.59
2023-03-26T20:16:36.581Z,41.37
2023-03-26T20:20:36.670Z,44.85
2023-03-26T20:24:36.802Z,38.47
2023-03-26T20:28:47.307Z,40.01
2023-03-26T20:32:37.868Z,42.09
2023-03-26T20:36:36.895Z,46.07
2023-03-26T20:40:36.805Z,40.66
2023-03-26T20:44:36.799Z,48.95
2023-03-26T20:48:36.913Z,45.20
2023-03-26T20:52:37.069Z,40.92
2023-03-26T20:56:37.223Z,54.29
2023-03-26T21:00:37.378Z,44.86
2023-03-26T21:04:37.489Z,43.59
2023-03-26T21:08:37.626Z,43.76
2023-03-26T21:12:37.774Z,42.32
2023-03-26T21:16:37.917Z,45.16
2023-03-26T21:20:38.035Z,45.48
2023-03-26T21:24:38.183Z,42.24
2023-03-26T21:28:42.391Z,42.13
2023-03-26T21:32:38.339Z,40.96
2023-03-26T21:36:38.365Z,38.51
2023-03-26T21:40:42.300Z,44.03
2023-03-26T21:44:39.223Z,46.11
2023-03-26T21:48:38.195Z,50.61
2023-03-26T21:52:38.215Z,43.72
2023-03-26T21:56:38.411Z,46.43
2023-03-26T22:00:43.734Z,43.57
2023-03-26T22:04:39.563Z,49.07
2023-03-26T22:08:38.476Z,48.22
2023-03-26T22:12:38.523Z,39.32
2023-03-26T22:16:38.703Z,43.04
2023-03-26T22:20:38.883Z,42.63
2023-03-26T22:24:39.122Z,49.82
2023-03-26T22:28:39.255Z,49.13
2023-03-26T22:32:39.475Z,43.09
2023-03-26T22:36:40.469Z,48.12
2023-03-26T22:40:39.766Z,44.15
2023-03-26T22:44:39.945Z,48.20
2023-03-26T22:48:40.186Z,49.29
2023-03-26T22:52:40.350Z,43.43
2023-03-26T22:56:40.556Z,42.92
2023-03-26T23:00:40.692Z,41.50
2023-03-26T23:04:40.982Z,44.56
2023-03-26T23:08:41.110Z,40.77
2023-03-26T23:12:41.343Z,47.04
2023-03-26T23:16:41.451Z,46.59
2023-03-26T23:20:41.665Z,44.76
2023-03-26T23:24:41.854Z,38.49
2023-03-26T23:28:42.031Z,41.29
2023-03-26T23:32:42.211Z,52.11
2023-03-26T23:36:42.425Z,40.23
2023-03-26T23:40:42.620Z,46.87
2023-03-26T23:44:42.773Z,41.99
2023-03-26T23:48:42.957Z,46.96
2023-03-26T23:52:43.158Z,38.90
2023-03-26T23:56:43.398Z,41.78
